createdAt,value
2019-03-26T00:01:27.007Z,2.87
2019-03-26T00:04:05.617Z,2.70
2019-03-26T00:06:28.923Z,2.60
2019-03-26T00:08:58.997Z,2.40
2019-03-26T00:11:29.152Z,2.30
2019-03-26T00:13:59.359Z,1.77
2019-03-26T00:16:29.433Z,2.25
2019-03-26T00:18:59.512Z,2.60
2019-03-26T00:21:29.505Z,2.65
2019-03-26T00:23:59.665Z,2.45
2019-03-26T00:26:29.879Z,2.35
2019-03-26T00:29:00.026Z,2.77
2019-03-26T00:31:30.156Z,2.50
2019-03-26T00:34:00.384Z,2.70
2019-03-26T00:36:30.598Z,2.60
2019-03-26T00:39:00.697Z,2.62
2019-03-26T00:41:31.201Z,2.90
2019-03-26T00:44:01.327Z,2.92
2019-03-26T00:46:31.468Z,2.87
2019-03-26T00:49:01.538Z,3.02
2019-03-26T00:51:31.549Z,2.95
2019-03-26T00:54:01.768Z,2.20
2019-03-26T00:56:31.972Z,2.83
2019-03-26T00:59:02.104Z,3.37
2019-03-26T01:01:32.248Z,2.10
2019-03-26T01:04:02.396Z,2.60
2019-03-26T01:06:32.633Z,2.90
2019-03-26T01:09:02.689Z,2.80
2019-03-26T01:11:34.514Z,2.95
2019-03-26T01:14:04.565Z,2.45
2019-03-26T01:16:34.753Z,2.90
2019-03-26T01:19:04.949Z,3.08
2019-03-26T01:21:35.088Z,3.15
2019-03-26T01:24:05.592Z,3.47
2019-03-26T01:26:35.716Z,3.60
2019-03-26T01:29:06.868Z,3.20
2019-03-26T01:31:37.009Z,3.55
2019-03-26T01:34:07.225Z,3.25
2019-03-26T01:36:37.421Z,3.47
2019-03-26T01:39:08.641Z,3.60
2019-03-26T01:41:38.773Z,3.40
2019-03-26T01:44:09.018Z,3.27
2019-03-26T01:46:39.216Z,3.12
2019-03-26T01:49:09.300Z,3.60
2019-03-26T01:51:39.452Z,3.05
2019-03-26T01:54:09.591Z,2.95
2019-03-26T01:59:45.724Z,2.83
2019-03-26T02:02:15.795Z,2.50
2019-03-26T02:04:58.821Z,2.60
2019-03-26T02:07:17.609Z,2.90
2019-03-26T02:09:47.891Z,2.77
2019-03-26T02:12:17.955Z,2.70
2019-03-26T02:14:48.179Z,2.42
2019-03-26T02:17:18.202Z,2.52
2019-03-26T02:19:48.328Z,2.60
2019-03-26T02:22:18.404Z,2.45
2019-03-26T02:24:48.484Z,2.50
2019-03-26T02:27:18.613Z,2.12
2019-03-26T02:29:48.908Z,2.37
2019-03-26T02:32:19.162Z,2.17
2019-03-26T02:34:49.239Z,2.35
2019-03-26T02:37:19.389Z,2.33
2019-03-26T02:39:49.540Z,2.42
2019-03-26T02:42:19.596Z,2.45
2019-03-26T02:44:49.678Z,2.55
2019-03-26T02:47:19.814Z,2.60
2019-03-26T02:49:49.976Z,2.42
2019-03-26T02:52:20.073Z,2.40
2019-03-26T02:54:50.132Z,2.70
2019-03-26T02:57:20.203Z,2.65
2019-03-26T02:59:50.412Z,2.90
2019-03-26T03:02:20.638Z,2.60
2019-03-26T03:04:50.853Z,2.98
2019-03-26T03:07:21.131Z,2.98
2019-03-26T03:09:51.268Z,2.90
2019-03-26T03:12:21.361Z,3.70
2019-03-26T03:14:51.569Z,2.83
2019-03-26T03:17:22.000Z,3.30
2019-03-26T03:19:52.137Z,3.20
2019-03-26T03:22:22.310Z,3.50
2019-03-26T03:24:52.362Z,2.92
2019-03-26T03:27:22.516Z,3.27
2019-03-26T03:29:52.567Z,3.37
2019-03-26T03:32:22.713Z,3.47
2019-03-26T03:34:52.885Z,3.40
2019-03-26T03:37:23.223Z,3.45
2019-03-26T03:39:53.427Z,3.12
2019-03-26T03:42:23.487Z,3.58
2019-03-26T03:44:53.698Z,3.50
2019-03-26T03:47:26.763Z,3.50
2019-03-26T03:49:59.284Z,3.70
2019-03-26T03:52:31.877Z,3.52
2019-03-26T03:55:02.041Z,3.67
2019-03-26T03:57:32.555Z,3.40
2019-03-26T04:00:04.877Z,3.50
2019-03-26T04:02:35.016Z,3.52
2019-03-26T04:05:06.309Z,3.40
2019-03-26T04:07:36.584Z,3.30
2019-03-26T04:10:06.830Z,3.35
2019-03-26T04:12:36.971Z,3.60
2019-03-26T04:15:07.474Z,3.58
2019-03-26T04:17:37.630Z,3.33
2019-03-26T04:20:07.839Z,3.30
2019-03-26T04:22:38.067Z,3.85
2019-03-26T04:25:08.257Z,3.90
2019-03-26T04:27:38.483Z,3.47
2019-03-26T04:30:10.164Z,3.40
2019-03-26T04:32:40.262Z,4.17
2019-03-26T04:35:10.400Z,3.60
2019-03-26T04:37:40.616Z,3.10
2019-03-26T04:40:10.752Z,3.72
2019-03-26T04:42:40.890Z,3.30
2019-03-26T04:45:11.185Z,3.37
2019-03-26T04:47:41.316Z,3.40
2019-03-26T04:50:11.451Z,3.50
2019-03-26T04:52:41.662Z,3.20
2019-03-26T04:55:11.810Z,3.20
2019-03-26T04:57:41.879Z,3.20
2019-03-26T05:00:12.390Z,3.40
2019-03-26T05:02:42.458Z,3.60
2019-03-26T05:05:12.694Z,3.05
2019-03-26T05:07:42.849Z,3.37
2019-03-26T05:10:12.984Z,2.80
2019-03-26T05:12:44.321Z,3.05
2019-03-26T05:15:14.890Z,2.98
2019-03-26T05:17:45.092Z,3.02
2019-03-26T05:20:15.242Z,2.90
2019-03-26T05:22:45.429Z,2.87
2019-03-26T05:25:15.627Z,2.70
2019-03-26T05:27:45.993Z,2.50
2019-03-26T05:30:16.335Z,2.42
2019-03-26T05:32:46.499Z,2.58
2019-03-26T05:35:16.636Z,2.92
2019-03-26T05:37:46.640Z,2.70
2019-03-26T05:40:16.785Z,2.90
2019-03-26T05:42:47.111Z,2.40
2019-03-26T05:45:17.328Z,3.27
2019-03-26T05:47:47.477Z,2.90
2019-03-26T05:50:17.797Z,5.05
2019-03-26T05:52:47.932Z,3.87
2019-03-26T05:55:18.017Z,3.58
2019-03-26T05:57:48.162Z,3.87
2019-03-26T06:00:21.301Z,3.62
2019-03-26T06:02:51.437Z,2.92
2019-03-26T06:05:21.695Z,2.33
2019-03-26T06:07:51.842Z,1.92
2019-03-26T06:10:22.103Z,1.90
2019-03-26T06:12:52.253Z,1.60
2019-03-26T06:15:22.453Z,2.35
2019-03-26T06:17:52.595Z,1.87
2019-03-26T06:20:22.805Z,2.15
2019-03-26T06:22:52.893Z,2.42
2019-03-26T06:25:23.007Z,2.10
2019-03-26T06:27:53.086Z,2.12
2019-03-26T06:30:23.284Z,1.50
2019-03-26T06:32:53.373Z,1.85
2019-03-26T06:35:23.503Z,6.67
2019-03-26T06:37:53.647Z,3.47
2019-03-26T06:40:23.870Z,3.20
2019-03-26T06:42:54.079Z,3.40
2019-03-26T06:45:24.191Z,3.92
2019-03-26T06:47:54.320Z,3.33
2019-03-26T06:50:25.536Z,3.45
2019-03-26T06:52:55.681Z,4.72
2019-03-26T06:55:25.842Z,3.65
2019-03-26T06:57:55.900Z,5.17
2019-03-26T07:00:33.287Z,5.45
2019-03-26T07:03:05.518Z,5.12
2019-03-26T07:05:35.654Z,4.25
2019-03-26T07:08:05.868Z,4.28
2019-03-26T07:10:35.943Z,3.72
2019-03-26T07:13:06.004Z,3.65
2019-03-26T07:15:36.198Z,3.85
2019-03-26T07:18:06.396Z,4.40
2019-03-26T07:20:36.523Z,4.35
2019-03-26T07:23:08.470Z,4.53
2019-03-26T07:25:38.571Z,5.22
2019-03-26T07:28:08.718Z,5.00
2019-03-26T07:30:43.678Z,4.37
2019-03-26T07:33:13.932Z,4.33
2019-03-26T07:35:44.192Z,4.83
2019-03-26T07:38:14.338Z,6.00
2019-03-26T07:40:44.482Z,5.42
2019-03-26T07:43:14.628Z,5.33
2019-03-26T07:45:44.693Z,5.25
2019-03-26T07:48:14.770Z,5.78
2019-03-26T07:50:44.975Z,5.03
2019-03-26T07:53:15.233Z,4.47
2019-03-26T07:55:45.447Z,4.58
2019-03-26T07:58:15.533Z,5.35
2019-03-26T08:00:45.749Z,4.67
2019-03-26T08:03:15.885Z,4.72
2019-03-26T08:05:46.033Z,4.20
2019-03-26T08:08:17.168Z,3.77
2019-03-26T08:10:47.321Z,4.12
2019-03-26T08:13:17.566Z,5.15
2019-03-26T08:15:47.725Z,3.58
2019-03-26T08:18:17.983Z,3.67
2019-03-26T08:20:48.144Z,3.77
2019-03-26T08:23:18.278Z,5.10
2019-03-26T08:25:48.494Z,4.42
2019-03-26T08:28:18.699Z,4.25
2019-03-26T08:30:50.370Z,3.27
2019-03-26T08:33:23.330Z,3.33
2019-03-26T08:35:52.586Z,2.75
2019-03-26T08:38:22.772Z,3.65
2019-03-26T08:40:52.842Z,3.33
2019-03-26T08:43:24.458Z,2.72
2019-03-26T08:45:54.564Z,3.22
2019-03-26T08:48:27.484Z,2.70
2019-03-26T08:51:02.286Z,2.90
2019-03-26T08:53:32.530Z,3.00
2019-03-26T08:56:02.613Z,2.75
2019-03-26T08:58:32.697Z,2.37
2019-03-26T09:01:02.859Z,3.05
2019-03-26T09:03:34.718Z,3.08
2019-03-26T09:06:04.871Z,2.47
2019-03-26T09:08:35.086Z,2.17
2019-03-26T09:11:05.374Z,2.00
2019-03-26T09:13:36.666Z,1.98
2019-03-26T09:16:07.217Z,1.75
2019-03-26T09:18:37.354Z,2.02
2019-03-26T09:21:07.509Z,2.65
2019-03-26T09:23:39.041Z,2.30
2019-03-26T09:26:09.189Z,2.40
2019-03-26T09:28:39.315Z,2.50
2019-03-26T09:31:09.432Z,2.50
2019-03-26T09:33:39.639Z,2.12
2019-03-26T09:36:09.720Z,2.50
2019-03-26T09:38:40.455Z,2.40
2019-03-26T09:41:12.124Z,2.70
2019-03-26T09:43:42.209Z,2.80
2019-03-26T09:46:12.356Z,3.05
2019-03-26T09:48:45.494Z,3.02
2019-03-26T09:51:15.713Z,3.00
2019-03-26T09:53:45.807Z,3.17
2019-03-26T09:56:27.943Z,3.00
2019-03-26T09:58:47.932Z,2.98
2019-03-26T10:01:18.114Z,2.72
2019-03-26T10:03:48.300Z,2.52
2019-03-26T10:06:23.756Z,2.50
2019-03-26T10:08:52.596Z,2.25
2019-03-26T10:11:21.993Z,3.00
2019-03-26T10:13:52.801Z,2.75
2019-03-26T10:16:23.961Z,2.50
2019-03-26T10:18:54.037Z,2.87
2019-03-26T10:21:24.258Z,2.70
2019-03-26T10:23:55.938Z,2.42
2019-03-26T10:26:26.029Z,2.70
2019-03-26T10:28:56.095Z,2.70
2019-03-26T10:31:26.176Z,2.70
2019-03-26T10:33:57.974Z,2.40
2019-03-26T10:36:29.534Z,2.70
2019-03-26T10:39:05.250Z,2.70
2019-03-26T10:41:33.363Z,2.77
2019-03-26T10:44:04.971Z,3.70
2019-03-26T10:46:35.989Z,2.90
2019-03-26T10:49:06.141Z,2.42
2019-03-26T10:51:39.143Z,2.02
2019-03-26T10:54:10.877Z,2.33
2019-03-26T10:56:42.613Z,2.27
2019-03-26T10:59:12.764Z,2.00
2019-03-26T11:01:42.986Z,2.00
2019-03-26T11:04:13.136Z,1.90
2019-03-26T11:06:43.209Z,1.75
2019-03-26T11:09:21.387Z,1.60
2019-03-26T11:11:45.136Z,1.60
2019-03-26T11:14:15.355Z,2.35
2019-03-26T11:16:45.573Z,1.90
2019-03-26T11:19:15.740Z,2.52
2019-03-26T11:21:45.881Z,2.17
2019-03-26T11:24:15.966Z,1.92
2019-03-26T11:26:47.972Z,2.15
2019-03-26T11:29:18.221Z,2.42
2019-03-26T11:31:48.438Z,2.10
2019-03-26T11:34:18.667Z,1.92
2019-03-26T11:36:48.861Z,2.20
2019-03-26T11:39:32.160Z,2.50
2019-03-26T11:41:56.968Z,2.00
2019-03-26T11:44:28.721Z,2.10
2019-03-26T11:46:58.877Z,1.90
2019-03-26T11:49:33.368Z,1.80
2019-03-26T11:52:04.987Z,1.80
2019-03-26T11:54:37.856Z,1.80
2019-03-26T11:57:08.096Z,1.85
2019-03-26T11:59:39.831Z,1.00
2019-03-26T12:02:11.315Z,1.00
2019-03-26T12:04:41.488Z,0.90
2019-03-26T12:07:11.725Z,0.57
2019-03-26T12:09:46.658Z,0.72
2019-03-26T12:12:13.593Z,0.80
2019-03-26T12:14:46.164Z,1.00
2019-03-26T12:17:17.963Z,0.80
2019-03-26T12:19:48.177Z,0.80
2019-03-26T12:22:18.192Z,1.20
2019-03-26T12:24:48.412Z,1.25
2019-03-26T12:27:18.687Z,1.30
2019-03-26T12:29:48.857Z,1.00
2019-03-26T12:32:19.004Z,0.90
2019-03-26T12:34:49.151Z,1.10
2019-03-26T12:37:20.293Z,1.07
2019-03-26T12:39:59.504Z,1.20
2019-03-26T12:42:22.360Z,1.30
2019-03-26T12:44:52.527Z,1.22
2019-03-26T12:47:22.747Z,1.10
2019-03-26T12:49:52.826Z,0.93
2019-03-26T12:52:23.054Z,1.10
2019-03-26T12:54:53.200Z,1.20
2019-03-26T12:57:26.065Z,0.90
2019-03-26T12:59:56.281Z,1.12
2019-03-26T13:02:26.496Z,1.37
2019-03-26T13:04:56.679Z,1.50
2019-03-26T13:07:26.817Z,1.40
2019-03-26T13:09:56.974Z,1.25
2019-03-26T13:12:26.991Z,1.00
2019-03-26T13:14:59.436Z,1.10
2019-03-26T13:17:28.944Z,1.30
2019-03-26T13:19:59.150Z,1.12
2019-03-26T13:22:29.303Z,0.80
2019-03-26T13:24:59.525Z,1.00
2019-03-26T13:27:29.615Z,0.90
2019-03-26T13:29:59.743Z,1.10
2019-03-26T13:32:29.900Z,1.10
2019-03-26T13:35:00.053Z,1.40
2019-03-26T13:37:30.234Z,1.30
2019-03-26T13:40:00.400Z,1.32
2019-03-26T13:42:30.527Z,1.42
2019-03-26T13:45:00.681Z,1.40
2019-03-26T13:47:30.681Z,1.50
2019-03-26T13:50:00.827Z,1.50
2019-03-26T13:52:31.108Z,1.15
2019-03-26T13:55:01.338Z,1.30
2019-03-26T13:57:31.410Z,1.20
2019-03-26T14:00:01.557Z,1.40
2019-03-26T14:02:33.275Z,1.20
2019-03-26T14:05:04.439Z,1.40
2019-03-26T14:07:36.103Z,1.30
2019-03-26T14:10:08.360Z,1.17
2019-03-26T14:12:42.937Z,1.07
2019-03-26T14:15:13.205Z,1.40
2019-03-26T14:17:43.163Z,1.20
2019-03-26T14:20:13.931Z,1.30
2019-03-26T14:22:44.151Z,1.20
2019-03-26T14:25:14.384Z,0.80
2019-03-26T14:27:45.587Z,1.10
2019-03-26T14:30:19.755Z,1.30
2019-03-26T14:32:49.892Z,1.20
2019-03-26T14:35:21.692Z,1.17
2019-03-26T14:37:51.900Z,1.57
2019-03-26T14:40:23.125Z,1.50
2019-03-26T14:42:54.389Z,1.57
2019-03-26T14:45:24.539Z,1.12
2019-03-26T14:47:54.769Z,1.40
2019-03-26T14:50:28.484Z,1.20
2019-03-26T14:52:58.628Z,1.22
2019-03-26T14:55:28.780Z,1.30
2019-03-26T14:57:59.009Z,1.40
2019-03-26T15:00:33.742Z,1.20
2019-03-26T15:03:03.888Z,1.40
2019-03-26T15:05:38.738Z,1.50
2019-03-26T15:08:09.241Z,1.70
2019-03-26T15:10:39.381Z,1.60
2019-03-26T15:13:09.614Z,1.25
2019-03-26T15:15:39.834Z,1.42
2019-03-26T15:18:09.986Z,1.30
2019-03-26T15:20:40.052Z,1.40
2019-03-26T15:23:10.208Z,1.32
2019-03-26T15:25:40.343Z,1.50
2019-03-26T15:28:11.908Z,1.72
2019-03-26T15:30:43.350Z,1.80
2019-03-26T15:33:13.427Z,1.70
2019-03-26T15:35:43.717Z,1.70
2019-03-26T15:38:13.885Z,1.65
2019-03-26T15:40:44.100Z,1.98
2019-03-26T15:43:15.635Z,2.25
2019-03-26T15:45:45.833Z,2.12
2019-03-26T15:48:18.898Z,2.52
2019-03-26T15:50:48.988Z,2.25
2019-03-26T15:53:19.044Z,2.33
2019-03-26T15:55:50.088Z,2.15
2019-03-26T15:58:20.157Z,2.17
2019-03-26T16:00:50.371Z,2.27
2019-03-26T16:03:22.413Z,2.25
2019-03-26T16:05:52.347Z,2.12
2019-03-26T16:08:24.851Z,2.20
2019-03-26T16:10:54.920Z,2.30
2019-03-26T16:13:24.987Z,2.50
2019-03-26T16:15:55.156Z,2.40
2019-03-26T16:18:26.836Z,2.27
2019-03-26T16:20:56.997Z,2.58
2019-03-26T16:23:27.081Z,2.30
2019-03-26T16:25:58.826Z,2.65
2019-03-26T16:28:28.969Z,2.40
2019-03-26T16:30:59.108Z,2.42
2019-03-26T16:33:29.265Z,2.00
2019-03-26T16:35:59.473Z,2.27
2019-03-26T16:38:31.228Z,2.52
2019-03-26T16:41:02.759Z,2.27
2019-03-26T16:43:32.921Z,2.90
2019-03-26T16:46:03.077Z,2.45
2019-03-26T16:48:33.071Z,2.90
2019-03-26T16:51:03.153Z,2.92
2019-03-26T16:53:39.011Z,2.65
2019-03-26T16:56:09.092Z,2.80
2019-03-26T16:58:39.203Z,2.90
2019-03-26T17:01:09.418Z,2.80
2019-03-26T17:03:39.643Z,2.60
2019-03-26T17:06:09.797Z,2.50
2019-03-26T17:08:39.941Z,3.08
2019-03-26T17:11:12.648Z,2.95
2019-03-26T17:13:42.655Z,2.50
2019-03-26T17:16:13.944Z,2.35
2019-03-26T17:18:44.312Z,2.60
2019-03-26T17:21:14.603Z,2.70
2019-03-26T17:23:44.826Z,2.60
2019-03-26T17:26:15.555Z,2.50
2019-03-26T17:28:45.866Z,2.25
2019-03-26T17:31:16.086Z,2.30
2019-03-26T17:33:46.213Z,2.30
2019-03-26T17:36:16.370Z,2.20
2019-03-26T17:38:46.504Z,2.55
2019-03-26T17:41:16.662Z,2.30
2019-03-26T17:43:46.792Z,2.67
2019-03-26T17:46:17.165Z,2.17
2019-03-26T17:48:47.378Z,2.60
2019-03-26T17:51:17.441Z,2.40
2019-03-26T17:53:47.596Z,2.37
2019-03-26T17:56:17.736Z,2.90
2019-03-26T17:58:47.959Z,2.85
2019-03-26T18:01:18.100Z,2.85
2019-03-26T18:03:49.789Z,3.22
2019-03-26T18:06:20.076Z,2.80
2019-03-26T18:08:50.217Z,3.12
2019-03-26T18:11:20.437Z,3.40
2019-03-26T18:13:50.512Z,3.50
2019-03-26T18:16:20.797Z,3.65
2019-03-26T18:18:50.963Z,3.65
2019-03-26T18:21:22.199Z,6.35
2019-03-26T18:23:52.420Z,8.88
2019-03-26T18:26:22.497Z,5.72
2019-03-26T18:28:55.343Z,4.85
2019-03-26T18:31:24.556Z,3.25
2019-03-26T18:33:55.780Z,3.75
2019-03-26T18:36:25.759Z,3.65
2019-03-26T18:38:55.901Z,3.27
2019-03-26T18:41:26.116Z,2.98
2019-03-26T18:43:56.253Z,3.02
2019-03-26T18:46:26.322Z,2.90
2019-03-26T18:48:56.458Z,3.20
2019-03-26T18:51:26.606Z,3.50
2019-03-26T18:53:56.748Z,3.30
2019-03-26T18:56:26.912Z,3.08
2019-03-26T18:58:56.891Z,3.60
2019-03-26T19:01:26.989Z,3.90
2019-03-26T19:03:57.206Z,3.52
2019-03-26T19:06:27.207Z,3.60
2019-03-26T19:08:57.434Z,5.20
2019-03-26T19:11:27.736Z,7.37
2019-03-26T19:13:57.752Z,7.62
2019-03-26T19:16:27.758Z,7.45
2019-03-26T19:18:57.974Z,6.17
2019-03-26T19:21:28.003Z,7.53
2019-03-26T19:24:04.496Z,5.58
2019-03-26T19:26:33.018Z,5.72
2019-03-26T19:29:03.229Z,5.42
2019-03-26T19:31:33.313Z,6.10
2019-03-26T19:34:05.004Z,5.65
2019-03-26T19:36:35.214Z,5.22
2019-03-26T19:39:07.106Z,5.20
2019-03-26T19:41:38.954Z,5.28
2019-03-26T19:44:09.082Z,5.45
2019-03-26T19:46:40.712Z,5.40
2019-03-26T19:49:10.965Z,5.08
2019-03-26T19:51:41.003Z,4.65
2019-03-26T19:54:11.205Z,5.53
2019-03-26T19:56:42.948Z,5.20
2019-03-26T19:59:13.017Z,6.00
2019-03-26T20:01:43.172Z,5.65
2019-03-26T20:04:13.309Z,5.40
2019-03-26T20:06:43.391Z,6.28
2019-03-26T20:09:13.708Z,6.08
2019-03-26T20:11:45.320Z,5.33
2019-03-26T20:14:16.358Z,4.62
2019-03-26T20:16:46.589Z,5.10
2019-03-26T20:19:16.724Z,5.20
2019-03-26T20:21:51.465Z,5.30
2019-03-26T20:24:21.771Z,5.37
2019-03-26T20:26:51.903Z,5.33
2019-03-26T20:29:22.041Z,5.87
2019-03-26T20:31:52.265Z,5.85
2019-03-26T20:34:22.403Z,5.72
2019-03-26T20:36:52.619Z,6.17
2019-03-26T20:39:23.850Z,6.47
2019-03-26T20:41:53.961Z,5.50
2019-03-26T20:44:25.168Z,6.30
2019-03-26T20:46:55.313Z,5.60
2019-03-26T20:49:25.632Z,6.03
2019-03-26T20:51:55.840Z,6.00
2019-03-26T20:54:26.146Z,6.22
2019-03-26T20:56:56.286Z,6.00
2019-03-26T20:59:26.718Z,6.05
2019-03-26T21:01:56.939Z,6.40
2019-03-26T21:04:27.152Z,7.40
2019-03-26T21:06:57.369Z,6.70
2019-03-26T21:09:27.458Z,6.25
2019-03-26T21:11:57.603Z,6.42
2019-03-26T21:14:27.754Z,6.28
2019-03-26T21:16:57.907Z,5.75
2019-03-26T21:19:29.540Z,6.53
2019-03-26T21:21:59.676Z,6.37
2019-03-26T21:24:34.263Z,7.00
2019-03-26T21:27:04.397Z,6.67
2019-03-26T21:29:35.748Z,6.58
2019-03-26T21:32:05.892Z,5.72
2019-03-26T21:34:36.126Z,5.78
2019-03-26T21:37:06.465Z,6.15
2019-03-26T21:39:36.666Z,5.50
2019-03-26T21:42:09.861Z,5.47
2019-03-26T21:44:44.120Z,5.50
2019-03-26T21:47:15.202Z,5.55
2019-03-26T21:49:48.594Z,5.53
2019-03-26T21:52:18.854Z,4.60
2019-03-26T21:54:50.478Z,5.42
2019-03-26T21:57:20.565Z,5.53
2019-03-26T21:59:52.109Z,5.53
2019-03-26T22:02:22.201Z,5.28
2019-03-26T22:04:54.904Z,5.20
2019-03-26T22:07:25.060Z,4.75
2019-03-26T22:09:55.274Z,5.20
2019-03-26T22:12:27.007Z,5.40
2019-03-26T22:14:57.216Z,5.33
2019-03-26T22:17:27.279Z,5.00
2019-03-26T22:19:57.356Z,5.20
2019-03-26T22:22:27.559Z,5.28
2019-03-26T22:24:57.637Z,5.12
2019-03-26T22:27:28.582Z,5.35
2019-03-26T22:30:00.352Z,4.58
2019-03-26T22:32:32.653Z,5.22
2019-03-26T22:35:09.301Z,5.03
2019-03-26T22:37:39.625Z,4.85
2019-03-26T22:40:11.301Z,4.90
2019-03-26T22:42:41.429Z,4.58
2019-03-26T22:45:11.671Z,4.53
2019-03-26T22:47:41.874Z,4.33
2019-03-26T22:50:12.497Z,4.12
2019-03-26T22:52:45.362Z,4.50
2019-03-26T22:55:17.076Z,4.60
2019-03-26T22:57:49.099Z,3.65
2019-03-26T23:00:20.665Z,3.72
2019-03-26T23:02:52.413Z,4.12
2019-03-26T23:05:22.616Z,3.77
2019-03-26T23:07:52.820Z,4.60
2019-03-26T23:10:23.114Z,3.75
2019-03-26T23:12:53.332Z,3.80
2019-03-26T23:15:25.112Z,4.00
2019-03-26T23:17:55.285Z,3.80
2019-03-26T23:20:25.386Z,3.58
2019-03-26T23:22:55.602Z,3.58
2019-03-26T23:25:25.731Z,4.15
2019-03-26T23:27:56.021Z,3.55
2019-03-26T23:30:27.167Z,3.33
2019-03-26T23:32:57.244Z,3.62
2019-03-26T23:35:27.449Z,3.70
2019-03-26T23:37:58.776Z,3.60
2019-03-26T23:40:31.873Z,3.40
2019-03-26T23:43:01.939Z,3.95
2019-03-26T23:45:32.127Z,3.72
2019-03-26T23:48:02.365Z,4.10
2019-03-26T23:50:32.436Z,3.75
2019-03-26T23:53:02.574Z,3.92
2019-03-26T23:55:34.164Z,3.90
2019-03-26T23:58:04.303Z,4.10
